sensor_id;sensor_type;location;lat;lon;timestamp;temperature;humidity
35607;DHT22;21729;58.392;15.656;2023-06-22T00:02:22;17.70;99.90
35607;DHT22;21729;58.392;15.656;2023-06-22T00:04:49;17.70;99.90
35607;DHT22;21729;58.392;15.656;2023-06-22T00:07:16;17.70;99.90
35607;DHT22;21729;58.392;15.656;2023-06-22T00:09:45;17.70;99.90
35607;DHT22;21729;58.392;15.656;2023-06-22T00:12:12;17.70;99.90
35607;DHT22;21729;58.392;15.656;2023-06-22T00:14:39;17.70;99.90
35607;DHT22;21729;58.392;15.656;2023-06-22T00:17:06;17.70;99.90
35607;DHT22;21729;58.392;15.656;2023-06-22T00:19:33;17.70;99.90
35607;DHT22;21729;58.392;15.656;2023-06-22T00:22:01;17.60;99.90
35607;DHT22;21729;58.392;15.656;2023-06-22T00:24:29;17.60;99.90
35607;DHT22;21729;58.392;15.656;2023-06-22T00:26:57;17.60;99.90
35607;DHT22;21729;58.392;15.656;2023-06-22T00:29:24;17.50;99.90
35607;DHT22;21729;58.392;15.656;2023-06-22T00:31:52;17.50;99.90
35607;DHT22;21729;58.392;15.656;2023-06-22T00:34:19;17.40;99.90
35607;DHT22;21729;58.392;15.656;2023-06-22T00:36:46;17.40;99.90
35607;DHT22;21729;58.392;15.656;2023-06-22T00:39:13;17.30;99.90
35607;DHT22;21729;58.392;15.656;2023-06-22T00:41:40;17.30;99.90
35607;DHT22;21729;58.392;15.656;2023-06-22T00:44:09;17.20;99.90
35607;DHT22;21729;58.392;15.656;2023-06-22T00:46:36;17.20;99.90
35607;DHT22;21729;58.392;15.656;2023-06-22T00:49:04;17.30;99.90
35607;DHT22;21729;58.392;15.656;2023-06-22T00:51:31;17.20;99.90
35607;DHT22;21729;58.392;15.656;2023-06-22T00:53:59;17.30;99.90
35607;DHT22;21729;58.392;15.656;2023-06-22T00:56:26;17.30;99.90
35607;DHT22;21729;58.392;15.656;2023-06-22T00:58:55;17.30;99.90
35607;DHT22;21729;58.392;15.656;2023-06-22T01:01:25;17.20;99.90
35607;DHT22;21729;58.392;15.656;2023-06-22T01:03:52;17.20;99.90
35607;DHT22;21729;58.392;15.656;2023-06-22T01:06:29;17.10;99.90
35607;DHT22;21729;58.392;15.656;2023-06-22T01:09:08;17.00;99.90
35607;DHT22;21729;58.392;15.656;2023-06-22T01:11:44;16.90;99.90
35607;DHT22;21729;58.392;15.656;2023-06-22T01:14:16;16.80;99.90
35607;DHT22;21729;58.392;15.656;2023-06-22T01:16:47;16.80;99.90
35607;DHT22;21729;58.392;15.656;2023-06-22T01:19:31;16.80;99.90
35607;DHT22;21729;58.392;15.656;2023-06-22T01:22:01;16.70;99.90
35607;DHT22;21729;58.392;15.656;2023-06-22T01:24:38;16.60;99.90
35607;DHT22;21729;58.392;15.656;2023-06-22T01:27:17;16.60;99.90
35607;DHT22;21729;58.392;15.656;2023-06-22T01:29:51;16.60;99.90
35607;DHT22;21729;58.392;15.656;2023-06-22T01:32:20;16.60;99.90
35607;DHT22;21729;58.392;15.656;2023-06-22T01:34:48;16.60;99.90
35607;DHT22;21729;58.392;15.656;2023-06-22T01:37:16;16.60;99.90
35607;DHT22;21729;58.392;15.656;2023-06-22T01:39:43;16.60;99.90
35607;DHT22;21729;58.392;15.656;2023-06-22T01:42:11;16.60;99.90
35607;DHT22;21729;58.392;15.656;2023-06-22T01:44:38;16.60;99.90
35607;DHT22;21729;58.392;15.656;2023-06-22T01:47:07;16.60;99.90
35607;DHT22;21729;58.392;15.656;2023-06-22T01:49:35;16.50;99.90
35607;DHT22;21729;58.392;15.656;2023-06-22T01:52:03;16.50;99.90
35607;DHT22;21729;58.392;15.656;2023-06-22T01:54:30;16.40;99.90
35607;DHT22;21729;58.392;15.656;2023-06-22T01:56:57;16.30;99.90
35607;DHT22;21729;58.392;15.656;2023-06-22T01:59:28;16.20;99.90
35607;DHT22;21729;58.392;15.656;2023-06-22T02:02:01;16.20;99.90
35607;DHT22;21729;58.392;15.656;2023-06-22T02:04:34;16.10;99.90
35607;DHT22;21729;58.392;15.656;2023-06-22T02:07:07;16.00;99.90
35607;DHT22;21729;58.392;15.656;2023-06-22T02:09:38;16.00;99.90
35607;DHT22;21729;58.392;15.656;2023-06-22T02:12:09;15.90;99.90
35607;DHT22;21729;58.392;15.656;2023-06-22T02:14:38;15.90;99.90
35607;DHT22;21729;58.392;15.656;2023-06-22T02:17:07;15.80;99.90
35607;DHT22;21729;58.392;15.656;2023-06-22T02:19:38;15.70;99.90
35607;DHT22;21729;58.392;15.656;2023-06-22T02:22:05;15.70;99.90
35607;DHT22;21729;58.392;15.656;2023-06-22T02:24:32;15.70;99.90
35607;DHT22;21729;58.392;15.656;2023-06-22T02:27:00;15.60;99.90
35607;DHT22;21729;58.392;15.656;2023-06-22T02:29:28;15.60;99.90
35607;DHT22;21729;58.392;15.656;2023-06-22T02:31:55;15.60;99.90
35607;DHT22;21729;58.392;15.656;2023-06-22T02:34:22;15.50;99.90
35607;DHT22;21729;58.392;15.656;2023-06-22T02:36:51;15.50;99.90
35607;DHT22;21729;58.392;15.656;2023-06-22T02:39:23;15.50;99.90
35607;DHT22;21729;58.392;15.656;2023-06-22T02:41:50;15.60;99.90
35607;DHT22;21729;58.392;15.656;2023-06-22T02:44:17;15.70;99.90
35607;DHT22;21729;58.392;15.656;2023-06-22T02:46:45;15.70;99.90
35607;DHT22;21729;58.392;15.656;2023-06-22T02:49:12;15.70;99.90
35607;DHT22;21729;58.392;15.656;2023-06-22T02:51:41;15.70;99.90
35607;DHT22;21729;58.392;15.656;2023-06-22T02:54:10;15.80;99.90
35607;DHT22;21729;58.392;15.656;2023-06-22T02:56:38;15.90;99.90
35607;DHT22;21729;58.392;15.656;2023-06-22T02:59:06;16.00;99.90
35607;DHT22;21729;58.392;15.656;2023-06-22T03:01:33;16.10;99.90
35607;DHT22;21729;58.392;15.656;2023-06-22T03:04:06;16.30;99.90
35607;DHT22;21729;58.392;15.656;2023-06-22T03:06:34;16.50;99.90
35607;DHT22;21729;58.392;15.656;2023-06-22T03:09:04;16.50;99.90
35607;DHT22;21729;58.392;15.656;2023-06-22T03:11:33;16.60;99.90
35607;DHT22;21729;58.392;15.656;2023-06-22T03:14:01;16.60;99.90
35607;DHT22;21729;58.392;15.656;2023-06-22T03:16:28;16.80;99.90
35607;DHT22;21729;58.392;15.656;2023-06-22T03:18:55;16.80;99.90
35607;DHT22;21729;58.392;15.656;2023-06-22T03:21:23;16.90;99.90
35607;DHT22;21729;58.392;15.656;2023-06-22T03:23:50;17.00;99.90
35607;DHT22;21729;58.392;15.656;2023-06-22T03:26:18;17.00;99.90
35607;DHT22;21729;58.392;15.656;2023-06-22T03:28:46;17.10;99.90
35607;DHT22;21729;58.392;15.656;2023-06-22T03:31:13;17.10;99.90
35607;DHT22;21729;58.392;15.656;2023-06-22T03:33:41;17.10;99.90
35607;DHT22;21729;58.392;15.656;2023-06-22T03:36:08;17.10;99.90
35607;DHT22;21729;58.392;15.656;2023-06-22T03:38:35;17.10;99.90
35607;DHT22;21729;58.392;15.656;2023-06-22T03:41:02;17.10;99.90
35607;DHT22;21729;58.392;15.656;2023-06-22T03:43:29;17.10;99.90
35607;DHT22;21729;58.392;15.656;2023-06-22T03:45:57;17.00;99.90
35607;DHT22;21729;58.392;15.656;2023-06-22T03:48:24;16.90;99.90
35607;DHT22;21729;58.392;15.656;2023-06-22T03:50:52;16.90;99.90
35607;DHT22;21729;58.392;15.656;2023-06-22T03:53:19;16.80;99.90
35607;DHT22;21729;58.392;15.656;2023-06-22T03:55:50;16.70;99.90
35607;DHT22;21729;58.392;15.656;2023-06-22T03:58:17;16.80;99.90
35607;DHT22;21729;58.392;15.656;2023-06-22T04:00:45;16.80;99.90
35607;DHT22;21729;58.392;15.656;2023-06-22T04:03:15;16.80;99.90
35607;DHT22;21729;58.392;15.656;2023-06-22T04:05:44;16.80;99.90
35607;DHT22;21729;58.392;15.656;2023-06-22T04:08:12;16.90;99.90
35607;DHT22;21729;58.392;15.656;2023-06-22T04:10:40;17.00;99.90
35607;DHT22;21729;58.392;15.656;2023-06-22T04:13:07;17.00;99.90
35607;DHT22;21729;58.392;15.656;2023-06-22T04:15:34;17.10;99.90
35607;DHT22;21729;58.392;15.656;2023-06-22T04:18:01;17.10;99.90
35607;DHT22;21729;58.392;15.656;2023-06-22T04:20:31;17.10;99.90
35607;DHT22;21729;58.392;15.656;2023-06-22T04:22:58;17.30;99.90
35607;DHT22;21729;58.392;15.656;2023-06-22T04:25:25;17.50;99.90
35607;DHT22;21729;58.392;15.656;2023-06-22T04:27:52;17.50;99.90
35607;DHT22;21729;58.392;15.656;2023-06-22T04:30:19;17.70;99.90
35607;DHT22;21729;58.392;15.656;2023-06-22T04:32:46;17.60;99.90
35607;DHT22;21729;58.392;15.656;2023-06-22T04:35:23;17.40;99.90
35607;DHT22;21729;58.392;15.656;2023-06-22T04:37:53;17.50;99.90
35607;DHT22;21729;58.392;15.656;2023-06-22T04:40:22;17.40;99.90
35607;DHT22;21729;58.392;15.656;2023-06-22T04:42:49;17.70;99.90
35607;DHT22;21729;58.392;15.656;2023-06-22T04:45:19;17.90;99.90
35607;DHT22;21729;58.392;15.656;2023-06-22T04:47:47;17.80;99.90
35607;DHT22;21729;58.392;15.656;2023-06-22T04:50:14;17.90;99.90
35607;DHT22;21729;58.392;15.656;2023-06-22T04:52:42;17.90;99.90
35607;DHT22;21729;58.392;15.656;2023-06-22T04:55:10;18.10;99.90
35607;DHT22;21729;58.392;15.656;2023-06-22T04:57:37;18.10;91.40
35607;DHT22;21729;58.392;15.656;2023-06-22T05:00:06;18.30;43.70
35607;DHT22;21729;58.392;15.656;2023-06-22T05:02:43;18.40;35.60
35607;DHT22;21729;58.392;15.656;2023-06-22T05:05:11;18.20;99.90
35607;DHT22;21729;58.392;15.656;2023-06-22T05:07:40;18.20;52.30
35607;DHT22;21729;58.392;15.656;2023-06-22T05:10:11;18.10;78.90
35607;DHT22;21729;58.392;15.656;2023-06-22T05:12:39;18.00;99.90
35607;DHT22;21729;58.392;15.656;2023-06-22T05:15:08;18.10;99.90
35607;DHT22;21729;58.392;15.656;2023-06-22T05:17:36;18.00;99.90
35607;DHT22;21729;58.392;15.656;2023-06-22T05:20:08;17.80;99.90
35607;DHT22;21729;58.392;15.656;2023-06-22T05:22:35;17.80;99.90
35607;DHT22;21729;58.392;15.656;2023-06-22T05:25:02;17.90;99.90
35607;DHT22;21729;58.392;15.656;2023-06-22T05:27:31;17.90;99.90
35607;DHT22;21729;58.392;15.656;2023-06-22T05:29:58;18.00;99.90
35607;DHT22;21729;58.392;15.656;2023-06-22T05:32:27;17.90;99.90
35607;DHT22;21729;58.392;15.656;2023-06-22T05:34:55;17.80;85.50
35607;DHT22;21729;58.392;15.656;2023-06-22T05:37:22;17.90;36.70
35607;DHT22;21729;58.392;15.656;2023-06-22T05:39:49;18.20;92.90
35607;DHT22;21729;58.392;15.656;2023-06-22T05:42:16;18.30;61.70
35607;DHT22;21729;58.392;15.656;2023-06-22T05:44:45;18.50;24.70
35607;DHT22;21729;58.392;15.656;2023-06-22T05:47:13;19.10;1.00
35607;DHT22;21729;58.392;15.656;2023-06-22T05:49:40;19.10;1.00
35607;DHT22;21729;58.392;15.656;2023-06-22T05:52:07;19.90;1.00
35607;DHT22;21729;58.392;15.656;2023-06-22T05:54:34;20.90;99.90
35607;DHT22;21729;58.392;15.656;2023-06-22T05:57:02;21.30;99.90
35607;DHT22;21729;58.392;15.656;2023-06-22T06:02:53;20.50;1.00
35607;DHT22;21729;58.392;15.656;2023-06-22T06:05:20;21.00;99.90
35607;DHT22;21729;58.392;15.656;2023-06-22T06:07:49;22.10;99.90
35607;DHT22;21729;58.392;15.656;2023-06-22T06:10:16;22.50;99.90
35607;DHT22;21729;58.392;15.656;2023-06-22T06:12:43;22.80;99.90
35607;DHT22;21729;58.392;15.656;2023-06-22T06:15:10;22.40;99.90
35607;DHT22;21729;58.392;15.656;2023-06-22T06:17:45;24.80;1.00
35607;DHT22;21729;58.392;15.656;2023-06-22T06:20:14;23.20;22.20
35607;DHT22;21729;58.392;15.656;2023-06-22T06:22:41;24.10;1.00
35607;DHT22;21729;58.392;15.656;2023-06-22T06:25:09;23.70;1.00
35607;DHT22;21729;58.392;15.656;2023-06-22T06:27:42;24.50;1.00
35607;DHT22;21729;58.392;15.656;2023-06-22T06:30:10;22.70;1.00
35607;DHT22;21729;58.392;15.656;2023-06-22T06:32:38;22.70;8.00
35607;DHT22;21729;58.392;15.656;2023-06-22T06:35:06;24.10;1.00
35607;DHT22;21729;58.392;15.656;2023-06-22T06:37:37;23.50;1.00
35607;DHT22;21729;58.392;15.656;2023-06-22T06:40:06;25.60;1.00
35607;DHT22;21729;58.392;15.656;2023-06-22T06:42:34;25.60;1.00
35607;DHT22;21729;58.392;15.656;2023-06-22T06:45:04;25.70;1.00
35607;DHT22;21729;58.392;15.656;2023-06-22T06:47:31;24.20;1.00
35607;DHT22;21729;58.392;15.656;2023-06-22T06:49:58;24.70;1.00
35607;DHT22;21729;58.392;15.656;2023-06-22T06:52:25;24.40;1.00
35607;DHT22;21729;58.392;15.656;2023-06-22T06:54:54;25.00;1.00
35607;DHT22;21729;58.392;15.656;2023-06-22T06:57:21;24.30;1.00
35607;DHT22;21729;58.392;15.656;2023-06-22T06:59:48;25.80;99.90
35607;DHT22;21729;58.392;15.656;2023-06-22T07:02:15;26.40;99.90
35607;DHT22;21729;58.392;15.656;2023-06-22T07:04:43;27.10;99.90
35607;DHT22;21729;58.392;15.656;2023-06-22T07:07:10;27.00;99.90
35607;DHT22;21729;58.392;15.656;2023-06-22T07:09:37;27.10;99.90
35607;DHT22;21729;58.392;15.656;2023-06-22T07:12:07;27.80;99.90
35607;DHT22;21729;58.392;15.656;2023-06-22T07:14:36;26.60;99.90
35607;DHT22;21729;58.392;15.656;2023-06-22T07:17:04;26.40;99.90
35607;DHT22;21729;58.392;15.656;2023-06-22T07:19:33;27.30;99.90
35607;DHT22;21729;58.392;15.656;2023-06-22T07:22:00;27.30;99.90
35607;DHT22;21729;58.392;15.656;2023-06-22T07:24:29;27.60;99.90
35607;DHT22;21729;58.392;15.656;2023-06-22T07:26:58;27.50;99.90
35607;DHT22;21729;58.392;15.656;2023-06-22T07:29:27;28.20;99.90
35607;DHT22;21729;58.392;15.656;2023-06-22T07:31:54;27.80;99.90
35607;DHT22;21729;58.392;15.656;2023-06-22T07:34:22;29.10;99.90
35607;DHT22;21729;58.392;15.656;2023-06-22T07:36:49;28.60;99.90
35607;DHT22;21729;58.392;15.656;2023-06-22T07:39:16;27.20;99.90
35607;DHT22;21729;58.392;15.656;2023-06-22T07:41:43;26.80;99.90
35607;DHT22;21729;58.392;15.656;2023-06-22T07:44:10;28.20;99.90
35607;DHT22;21729;58.392;15.656;2023-06-22T07:46:39;27.90;99.90
35607;DHT22;21729;58.392;15.656;2023-06-22T07:49:06;27.90;99.90
35607;DHT22;21729;58.392;15.656;2023-06-22T07:51:33;27.80;99.90
35607;DHT22;21729;58.392;15.656;2023-06-22T07:54:01;28.00;99.90
35607;DHT22;21729;58.392;15.656;2023-06-22T07:56:28;28.40;99.90
35607;DHT22;21729;58.392;15.656;2023-06-22T07:58:55;27.50;99.90
35607;DHT22;21729;58.392;15.656;2023-06-22T08:01:24;27.00;99.90
35607;DHT22;21729;58.392;15.656;2023-06-22T08:03:52;28.20;99.90
35607;DHT22;21729;58.392;15.656;2023-06-22T08:06:20;29.10;99.90
35607;DHT22;21729;58.392;15.656;2023-06-22T08:08:47;29.20;99.90
35607;DHT22;21729;58.392;15.656;2023-06-22T08:11:14;29.70;99.90
35607;DHT22;21729;58.392;15.656;2023-06-22T08:13:42;30.30;99.90
35607;DHT22;21729;58.392;15.656;2023-06-22T08:16:09;29.80;99.90
35607;DHT22;21729;58.392;15.656;2023-06-22T08:18:36;28.40;99.90
35607;DHT22;21729;58.392;15.656;2023-06-22T08:21:05;29.20;99.90
35607;DHT22;21729;58.392;15.656;2023-06-22T08:23:32;29.10;99.90
35607;DHT22;21729;58.392;15.656;2023-06-22T08:25:59;28.30;99.90
35607;DHT22;21729;58.392;15.656;2023-06-22T08:28:26;29.10;99.90
35607;DHT22;21729;58.392;15.656;2023-06-22T08:30:53;28.50;99.90
35607;DHT22;21729;58.392;15.656;2023-06-22T08:33:21;28.50;99.90
35607;DHT22;21729;58.392;15.656;2023-06-22T08:35:54;28.30;99.90
35607;DHT22;21729;58.392;15.656;2023-06-22T08:38:23;30.00;99.90
35607;DHT22;21729;58.392;15.656;2023-06-22T08:40:50;30.10;99.90
35607;DHT22;21729;58.392;15.656;2023-06-22T08:43:17;30.00;99.90
35607;DHT22;21729;58.392;15.656;2023-06-22T08:45:44;29.40;99.90
35607;DHT22;21729;58.392;15.656;2023-06-22T08:48:11;29.70;99.90
35607;DHT22;21729;58.392;15.656;2023-06-22T08:50:38;29.90;99.90
35607;DHT22;21729;58.392;15.656;2023-06-22T08:53:06;29.40;99.90
35607;DHT22;21729;58.392;15.656;2023-06-22T08:55:35;29.10;99.90
35607;DHT22;21729;58.392;15.656;2023-06-22T08:58:02;30.00;99.90
35607;DHT22;21729;58.392;15.656;2023-06-22T09:00:30;29.40;99.90
35607;DHT22;21729;58.392;15.656;2023-06-22T09:03:02;28.80;99.90
35607;DHT22;21729;58.392;15.656;2023-06-22T09:05:30;28.60;99.90
35607;DHT22;21729;58.392;15.656;2023-06-22T09:07:57;28.60;99.90
35607;DHT22;21729;58.392;15.656;2023-06-22T09:10:25;28.20;99.90
35607;DHT22;21729;58.392;15.656;2023-06-22T09:12:54;29.00;99.90
35607;DHT22;21729;58.392;15.656;2023-06-22T09:15:21;28.20;99.90
35607;DHT22;21729;58.392;15.656;2023-06-22T09:17:48;27.90;99.90
35607;DHT22;21729;58.392;15.656;2023-06-22T09:20:16;28.20;99.90
35607;DHT22;21729;58.392;15.656;2023-06-22T09:22:43;27.90;99.90
35607;DHT22;21729;58.392;15.656;2023-06-22T09:25:10;28.00;99.90
35607;DHT22;21729;58.392;15.656;2023-06-22T09:27:38;27.60;99.90
35607;DHT22;21729;58.392;15.656;2023-06-22T09:30:08;27.60;99.90
35607;DHT22;21729;58.392;15.656;2023-06-22T09:32:35;28.00;99.90
35607;DHT22;21729;58.392;15.656;2023-06-22T09:35:04;27.40;99.90
35607;DHT22;21729;58.392;15.656;2023-06-22T09:37:32;27.50;99.90
35607;DHT22;21729;58.392;15.656;2023-06-22T09:40:00;28.60;99.90
35607;DHT22;21729;58.392;15.656;2023-06-22T09:42:27;27.90;99.90
35607;DHT22;21729;58.392;15.656;2023-06-22T09:44:54;28.40;99.90
35607;DHT22;21729;58.392;15.656;2023-06-22T09:47:22;27.30;99.90
35607;DHT22;21729;58.392;15.656;2023-06-22T09:49:49;27.60;99.90
35607;DHT22;21729;58.392;15.656;2023-06-22T09:52:16;27.60;99.90
35607;DHT22;21729;58.392;15.656;2023-06-22T09:54:43;27.70;99.90
35607;DHT22;21729;58.392;15.656;2023-06-22T09:57:10;27.50;99.90
35607;DHT22;21729;58.392;15.656;2023-06-22T09:59:38;27.10;99.90
35607;DHT22;21729;58.392;15.656;2023-06-22T10:02:06;26.40;99.90
35607;DHT22;21729;58.392;15.656;2023-06-22T10:04:35;25.50;99.90
35607;DHT22;21729;58.392;15.656;2023-06-22T10:07:16;25.90;99.90
35607;DHT22;21729;58.392;15.656;2023-06-22T10:09:43;25.20;99.90
35607;DHT22;21729;58.392;15.656;2023-06-22T10:12:10;25.50;99.90
35607;DHT22;21729;58.392;15.656;2023-06-22T10:14:37;25.50;99.90
35607;DHT22;21729;58.392;15.656;2023-06-22T10:17:05;25.60;99.90
35607;DHT22;21729;58.392;15.656;2023-06-22T10:19:34;26.20;99.90
35607;DHT22;21729;58.392;15.656;2023-06-22T10:22:03;25.30;99.90
35607;DHT22;21729;58.392;15.656;2023-06-22T10:24:31;25.10;99.90
35607;DHT22;21729;58.392;15.656;2023-06-22T10:26:58;24.90;99.90
35607;DHT22;21729;58.392;15.656;2023-06-22T10:29:25;24.60;99.90
35607;DHT22;21729;58.392;15.656;2023-06-22T10:31:52;24.30;99.90
35607;DHT22;21729;58.392;15.656;2023-06-22T10:34:19;24.20;99.90
35607;DHT22;21729;58.392;15.656;2023-06-22T10:36:48;24.70;99.90
35607;DHT22;21729;58.392;15.656;2023-06-22T10:39:15;24.50;99.90
35607;DHT22;21729;58.392;15.656;2023-06-22T10:41:42;24.50;99.90
35607;DHT22;21729;58.392;15.656;2023-06-22T10:44:09;24.70;99.90
35607;DHT22;21729;58.392;15.656;2023-06-22T10:46:36;24.70;99.90
35607;DHT22;21729;58.392;15.656;2023-06-22T10:49:03;24.50;99.90
35607;DHT22;21729;58.392;15.656;2023-06-22T10:51:31;25.10;99.90
35607;DHT22;21729;58.392;15.656;2023-06-22T10:53:59;25.00;99.90
35607;DHT22;21729;58.392;15.656;2023-06-22T10:56:27;24.60;99.90
35607;DHT22;21729;58.392;15.656;2023-06-22T10:58:54;24.70;99.90
35607;DHT22;21729;58.392;15.656;2023-06-22T11:01:21;24.90;99.90
35607;DHT22;21729;58.392;15.656;2023-06-22T11:03:48;24.50;99.90
35607;DHT22;21729;58.392;15.656;2023-06-22T11:06:15;24.90;99.90
35607;DHT22;21729;58.392;15.656;2023-06-22T11:08:44;24.70;99.90
35607;DHT22;21729;58.392;15.656;2023-06-22T11:11:12;24.80;99.90
35607;DHT22;21729;58.392;15.656;2023-06-22T11:13:39;24.50;99.90
35607;DHT22;21729;58.392;15.656;2023-06-22T11:16:06;24.50;99.90
35607;DHT22;21729;58.392;15.656;2023-06-22T11:18:34;24.30;99.90
35607;DHT22;21729;58.392;15.656;2023-06-22T11:21:01;24.10;99.90
35607;DHT22;21729;58.392;15.656;2023-06-22T11:23:28;23.90;99.90
35607;DHT22;21729;58.392;15.656;2023-06-22T11:25:55;24.20;99.90
35607;DHT22;21729;58.392;15.656;2023-06-22T11:28:24;24.00;99.90
35607;DHT22;21729;58.392;15.656;2023-06-22T11:30:51;24.50;99.90
35607;DHT22;21729;58.392;15.656;2023-06-22T11:33:19;24.60;99.90
35607;DHT22;21729;58.392;15.656;2023-06-22T11:35:46;24.30;99.90
35607;DHT22;21729;58.392;15.656;2023-06-22T11:38:13;24.30;99.90
35607;DHT22;21729;58.392;15.656;2023-06-22T11:40:40;24.50;99.90
35607;DHT22;21729;58.392;15.656;2023-06-22T11:43:07;24.80;99.90
35607;DHT22;21729;58.392;15.656;2023-06-22T11:45:36;24.60;99.90
35607;DHT22;21729;58.392;15.656;2023-06-22T11:48:03;24.60;99.90
35607;DHT22;21729;58.392;15.656;2023-06-22T11:50:30;24.40;99.90
35607;DHT22;21729;58.392;15.656;2023-06-22T11:53:01;24.10;99.90
35607;DHT22;21729;58.392;15.656;2023-06-22T11:55:28;24.10;99.90
35607;DHT22;21729;58.392;15.656;2023-06-22T11:57:57;24.10;99.90
35607;DHT22;21729;58.392;15.656;2023-06-22T12:00:28;24.20;99.90
35607;DHT22;21729;58.392;15.656;2023-06-22T12:02:57;24.20;99.90
35607;DHT22;21729;58.392;15.656;2023-06-22T12:05:24;23.80;99.90
35607;DHT22;21729;58.392;15.656;2023-06-22T12:07:53;24.00;99.90
35607;DHT22;21729;58.392;15.656;2023-06-22T12:10:21;24.10;99.90
35607;DHT22;21729;58.392;15.656;2023-06-22T12:12:48;24.10;99.90
35607;DHT22;21729;58.392;15.656;2023-06-22T12:15:15;24.00;99.90
35607;DHT22;21729;58.392;15.656;2023-06-22T12:17:42;23.50;99.90
35607;DHT22;21729;58.392;15.656;2023-06-22T12:20:11;24.00;99.90
35607;DHT22;21729;58.392;15.656;2023-06-22T12:22:38;23.80;99.90
35607;DHT22;21729;58.392;15.656;2023-06-22T12:25:06;23.70;99.90
35607;DHT22;21729;58.392;15.656;2023-06-22T12:27:34;23.60;99.90
35607;DHT22;21729;58.392;15.656;2023-06-22T12:30:01;23.40;99.90
35607;DHT22;21729;58.392;15.656;2023-06-22T12:32:28;23.10;99.90
35607;DHT22;21729;58.392;15.656;2023-06-22T12:34:56;23.30;99.90
35607;DHT22;21729;58.392;15.656;2023-06-22T12:37:25;23.30;99.90
35607;DHT22;21729;58.392;15.656;2023-06-22T12:39:54;23.20;99.90
35607;DHT22;21729;58.392;15.656;2023-06-22T12:42:21;23.10;99.90
35607;DHT22;21729;58.392;15.656;2023-06-22T12:44:48;23.10;99.90
35607;DHT22;21729;58.392;15.656;2023-06-22T12:47:15;23.40;99.90
35607;DHT22;21729;58.392;15.656;2023-06-22T12:49:42;23.60;99.90
35607;DHT22;21729;58.392;15.656;2023-06-22T12:52:10;24.20;99.90
35607;DHT22;21729;58.392;15.656;2023-06-22T12:54:39;24.30;99.90
35607;DHT22;21729;58.392;15.656;2023-06-22T19:20:46;19.80;1.00
35607;DHT22;21729;58.392;15.656;2023-06-22T19:23:24;19.60;1.00
35607;DHT22;21729;58.392;15.656;2023-06-22T19:25:52;19.60;1.00
35607;DHT22;21729;58.392;15.656;2023-06-22T19:28:23;19.60;1.00
35607;DHT22;21729;58.392;15.656;2023-06-22T19:30:52;19.50;1.00
35607;DHT22;21729;58.392;15.656;2023-06-22T19:33:20;19.40;1.00
35607;DHT22;21729;58.392;15.656;2023-06-22T19:35:50;19.40;1.00
35607;DHT22;21729;58.392;15.656;2023-06-22T19:38:17;19.30;1.00
35607;DHT22;21729;58.392;15.656;2023-06-22T19:40:45;19.30;1.00
35607;DHT22;21729;58.392;15.656;2023-06-22T19:43:13;19.20;1.00
35607;DHT22;21729;58.392;15.656;2023-06-22T19:45:41;19.20;1.00
35607;DHT22;21729;58.392;15.656;2023-06-22T19:48:09;19.00;1.00
35607;DHT22;21729;58.392;15.656;2023-06-22T19:50:37;18.90;1.00
35607;DHT22;21729;58.392;15.656;2023-06-22T19:53:12;18.90;1.00
35607;DHT22;21729;58.392;15.656;2023-06-22T19:55:41;18.90;1.00
35607;DHT22;21729;58.392;15.656;2023-06-22T19:58:09;18.80;1.00
35607;DHT22;21729;58.392;15.656;2023-06-22T20:00:37;18.70;1.00
35607;DHT22;21729;58.392;15.656;2023-06-22T20:03:08;18.60;1.00
35607;DHT22;21729;58.392;15.656;2023-06-22T20:05:40;18.60;1.00
35607;DHT22;21729;58.392;15.656;2023-06-22T20:08:11;18.50;1.00
35607;DHT22;21729;58.392;15.656;2023-06-22T20:10:39;18.60;1.00
35607;DHT22;21729;58.392;15.656;2023-06-22T20:13:10;18.40;1.00
35607;DHT22;21729;58.392;15.656;2023-06-22T20:15:41;18.40;1.00
35607;DHT22;21729;58.392;15.656;2023-06-22T20:18:09;18.30;1.00
35607;DHT22;21729;58.392;15.656;2023-06-22T20:20:38;18.30;1.00
35607;DHT22;21729;58.392;15.656;2023-06-22T20:23:05;18.30;1.00
35607;DHT22;21729;58.392;15.656;2023-06-22T20:25:38;18.20;9.90
35607;DHT22;21729;58.392;15.656;2023-06-22T20:28:08;18.20;17.50
35607;DHT22;21729;58.392;15.656;2023-06-22T20:30:36;18.10;18.00
35607;DHT22;21729;58.392;15.656;2023-06-22T20:33:06;18.10;62.60
35607;DHT22;21729;58.392;15.656;2023-06-22T20:35:39;18.00;81.70
35607;DHT22;21729;58.392;15.656;2023-06-22T20:38:06;17.90;99.90
35607;DHT22;21729;58.392;15.656;2023-06-22T20:40:34;17.80;99.90
35607;DHT22;21729;58.392;15.656;2023-06-22T20:43:03;17.80;99.90
35607;DHT22;21729;58.392;15.656;2023-06-22T20:45:30;17.70;99.90
35607;DHT22;21729;58.392;15.656;2023-06-22T20:47:58;17.70;99.90
35607;DHT22;21729;58.392;15.656;2023-06-22T20:50:26;17.60;99.90
35607;DHT22;21729;58.392;15.656;2023-06-22T20:52:55;17.60;99.90
35607;DHT22;21729;58.392;15.656;2023-06-22T20:55:22;17.40;99.90
35607;DHT22;21729;58.392;15.656;2023-06-22T20:57:49;17.40;99.90
35607;DHT22;21729;58.392;15.656;2023-06-22T21:00:19;17.30;99.90
35607;DHT22;21729;58.392;15.656;2023-06-22T21:02:47;17.20;99.90
35607;DHT22;21729;58.392;15.656;2023-06-22T21:05:14;17.10;99.90
35607;DHT22;21729;58.392;15.656;2023-06-22T21:07:41;17.20;99.90
35607;DHT22;21729;58.392;15.656;2023-06-22T21:10:09;17.00;99.90
35607;DHT22;21729;58.392;15.656;2023-06-22T21:12:36;17.00;99.90
35607;DHT22;21729;58.392;15.656;2023-06-22T21:15:04;16.90;99.90
35607;DHT22;21729;58.392;15.656;2023-06-22T21:17:33;16.90;99.90
35607;DHT22;21729;58.392;15.656;2023-06-22T21:20:00;16.90;1.00
35607;DHT22;21729;58.392;15.656;2023-06-22T21:22:31;16.80;1.40
35607;DHT22;21729;58.392;15.656;2023-06-22T21:25:05;16.80;1.00
35607;DHT22;21729;58.392;15.656;2023-06-22T21:27:33;16.60;1.00
35607;DHT22;21729;58.392;15.656;2023-06-22T21:30:01;16.70;1.00
35607;DHT22;21729;58.392;15.656;2023-06-22T21:32:28;16.60;1.00
35607;DHT22;21729;58.392;15.656;2023-06-22T21:34:57;16.50;1.00
35607;DHT22;21729;58.392;15.656;2023-06-22T21:37:24;16.50;1.00
35607;DHT22;21729;58.392;15.656;2023-06-22T21:39:52;16.50;1.00
35607;DHT22;21729;58.392;15.656;2023-06-22T21:42:19;16.40;1.00
35607;DHT22;21729;58.392;15.656;2023-06-22T21:44:48;16.40;1.00
35607;DHT22;21729;58.392;15.656;2023-06-22T21:47:15;16.30;1.00
35607;DHT22;21729;58.392;15.656;2023-06-22T21:49:42;16.30;1.00
35607;DHT22;21729;58.392;15.656;2023-06-22T21:52:11;16.30;1.00